Terminal Aerodrome Forecast
Issued by NWS Bismarck, ND

Home | Current Version | Previous Version | Graphics & Text | Print | Product List | Glossary On
Versions: 1 2 3 4 5 6 7 8 9 10 11 12 13 14 15 16 17 18 19 20
000
FTUS43 KBIS 240419 AAB
TAFISN
TAF AMD
KISN 240419Z 2404/2424 27004KT P6SM OVC018
      TEMPO 2404/2406 SCT018 OVC024
     FM241100 31005KT P6SM OVC008
     FM241500 30006KT P6SM OVC015
     FM241700 31007KT P6SM OVC008=

USA.gov is the U.S. government's official web portal to all federal, state and local government web resources and services.